Portada
METAR-TAF:

METAR-TAF

Aeropuertos :

Aeropuerto Mason Jewett Field

Mason, Míchigan, Estados Unidos

latitud: 42-33-57N, longitud: 084-25-24W, altitud: 280 m

Observación

El informe se hizo hace 31 minutos, a las 20:55 UTC
Viento 3 kt del oeste-suroeste
Temperatura 32°C
Humedad 46%
Presión 1024 hPa
Visibilidad: 16.1 km
Cielo despejado

METAR: KTEW 192055Z AUTO 25003KT 10SM CLR 32/19 A3023 RMK AO2 T03170188

Hora: 17:26 (21:26 UTC)


TAF: falta

Observaciones y pronósticos meteorológicos de más de 4000 aeropuertos (mensajes METAR y TAF).

Los puntos amarillos y rojos representan las estaciones disponibles.

Ponga el ratón en el punto deseado para ver el nombre de la estación.

Haga clic para ver las observaciones y los pronósticos meteorológicos.

Para cambiar el mapa : haga clic en los botones verdes con una cruz de color negro para hacer un zoom, en el botón verde con un guión para alejar o en las flechas verdes para mapas adyacentes.


METAR-TAF: